Time;durP1;ratioP1;P1;durP2;ratioP2;P2;SDS_P1;SDS_P2;PMS_P1;PMS_P2;Temp;Humidity;BMP_temperature;BMP_pressure;BME280_temperature;BME280_humidity;BME280_pressure;Samples;Min_cycle;Max_cycle;Signal;HPM_P1;HPM_P2
2021/12/25 00:00:11;;;;;;;1.73;1.60;;;;;;;9.06;97.52;94520.59;5074050;28;20196;-82
2021/12/25 00:02:38;;;;;;;1.87;1.70;;;;;;;9.05;97.26;94526.72;5059001;28;20290;-82
2021/12/25 00:05:06;;;;;;;2.83;1.53;;;;;;;9.03;97.28;94521.00;5053929;28;20258;-82
2021/12/25 00:07:33;;;;;;;2.57;1.50;;;;;;;9.05;97.92;94519.00;5065662;28;20224;-82
2021/12/25 00:10:01;;;;;;;1.90;1.70;;;;;;;9.03;98.68;94519.22;5074342;28;20206;-82
2021/12/25 00:12:29;;;;;;;2.67;1.60;;;;;;;9.05;99.06;94529.28;5061879;28;20232;-81
2021/12/25 00:14:55;;;;;;;1.70;1.60;;;;;;;9.11;98.69;94528.50;5053758;28;20249;-81
2021/12/25 00:17:22;;;;;;;2.23;1.77;;;;;;;9.09;99.32;94521.00;5065985;28;20239;-81
2021/12/25 00:19:48;;;;;;;2.03;1.60;;;;;;;9.04;99.69;94522.59;5073979;28;20208;-81
2021/12/25 00:22:15;;;;;;;2.57;1.73;;;;;;;9.07;99.62;94519.59;5062928;28;20197;-79
2021/12/25 00:24:44;;;;;;;1.53;1.43;;;;;;;9.09;99.31;94520.22;5052888;28;20263;-81
2021/12/25 00:27:33;;;;;;;1.97;1.47;;;;;;;9.07;99.22;94514.47;5069982;28;20228;-82
2021/12/25 00:30:12;;;;;;;1.60;1.50;;;;;;;9.02;99.77;94514.28;5073338;28;20578;-81
2021/12/25 00:32:48;;;;;;;2.30;2.03;;;;;;;8.99;99.83;94507.75;5053038;28;20207;-79
2021/12/25 00:35:15;;;;;;;1.90;1.70;;;;;;;8.90;100.00;94514.81;5052803;28;20308;-82
2021/12/25 00:37:41;;;;;;;2.77;1.70;;;;;;;8.84;100.00;94507.13;5092332;28;20235;-81
2021/12/25 00:40:09;;;;;;;2.03;1.83;;;;;;;8.84;100.00;94512.25;5095104;28;20203;-82
2021/12/25 00:42:35;;;;;;;1.90;1.80;;;;;;;8.82;100.00;94504.75;5060812;28;20189;-79
2021/12/25 00:45:04;;;;;;;1.50;1.40;;;;;;;8.84;100.00;94500.22;5072399;28;20233;-78
2021/12/25 00:47:31;;;;;;;2.73;1.90;;;;;;;8.89;100.00;94497.84;5065079;28;20225;-81
2021/12/25 00:49:57;;;;;;;2.03;1.83;;;;;;;8.93;100.00;94493.91;5062963;28;20201;-81
2021/12/25 00:52:24;;;;;;;1.87;1.77;;;;;;;8.94;100.00;94498.06;5072150;28;20291;-81
2021/12/25 00:54:50;;;;;;;2.03;1.83;;;;;;;8.93;100.00;94493.13;5056480;28;20595;-82
2021/12/25 00:57:17;;;;;;;1.70;1.60;;;;;;;8.94;100.00;94498.06;5064013;28;20224;-81
2021/12/25 00:59:43;;;;;;;2.77;1.40;;;;;;;8.92;100.00;94499.22;5078916;28;20283;-82
2021/12/25 01:02:11;;;;;;;1.80;1.70;;;;;;;8.95;100.00;94504.78;5075834;28;20204;-81
2021/12/25 01:04:38;;;;;;;2.40;1.67;;;;;;;8.94;100.00;94497.25;5077941;28;20232;-82
2021/12/25 01:07:04;;;;;;;1.60;1.40;;;;;;;8.93;100.00;94495.69;5064829;28;20232;-81
2021/12/25 01:09:31;;;;;;;1.87;1.60;;;;;;;8.97;100.00;94502.81;5058245;28;20266;-81
2021/12/25 01:11:58;;;;;;;1.93;1.50;;;;;;;9.04;100.00;94510.53;5060687;28;21959;-81
2021/12/25 01:14:33;;;;;;;1.93;1.70;;;;;;;9.12;100.00;94502.66;5057817;28;20221;-81
2021/12/25 01:20:04;;;;;;;1.93;1.60;;;;;;;9.11;99.86;94500.28;5068773;28;20656;-78
2021/12/25 01:28:44;;;;;;;3.17;1.60;;;;;;;9.09;100.00;94489.41;5073602;28;20350;-82
2021/12/25 01:31:14;;;;;;;1.70;1.60;;;;;;;9.05;100.00;94499.25;5063005;28;20231;-81
2021/12/25 01:34:12;;;;;;;2.10;1.63;;;;;;;9.12;99.98;94502.66;5075082;28;20664;-79
2021/12/25 01:39:26;;;;;;;2.10;1.80;;;;;;;9.18;99.69;94508.78;5056067;28;20653;-79
2021/12/25 01:47:44;;;;;;;2.60;1.60;;;;;;;9.21;99.50;94503.28;5075375;28;20580;-79
2021/12/25 01:47:48;;;;;;;1.57;1.47;;;;;;;9.15;99.39;94494.56;5074918;28;20234;-79
2021/12/25 01:50:16;;;;;;;1.87;1.70;;;;;;;9.17;99.51;94486.66;5075144;28;20200;-78
2021/12/25 01:52:44;;;;;;;1.60;1.50;;;;;;;9.18;99.14;94486.47;5058418;28;20617;-78
2021/12/25 01:55:15;;;;;;;1.43;1.33;;;;;;;9.14;99.16;94479.34;5060450;28;20223;-78
2021/12/25 01:57:42;;;;;;;1.77;1.67;;;;;;;9.12;99.64;94482.09;5066257;28;20221;-79
2021/12/25 02:00:13;;;;;;;1.80;1.70;;;;;;;9.14;99.38;94477.56;5059708;28;20204;-77
2021/12/25 02:02:40;;;;;;;2.23;1.40;;;;;;;9.19;99.17;94477.00;5075128;28;20205;-78
2021/12/25 02:05:07;;;;;;;2.67;1.50;;;;;;;9.22;98.92;94474.84;5069725;28;20218;-78
2021/12/25 02:07:34;;;;;;;2.03;1.50;;;;;;;9.22;98.92;94472.25;5091097;28;20231;-79
2021/12/25 02:10:02;;;;;;;1.50;1.40;;;;;;;9.22;99.02;94484.31;5090855;28;20204;-78
2021/12/25 02:12:28;;;;;;;1.50;1.40;;;;;;;9.20;99.00;94478.56;5055379;28;20209;-79
2021/12/25 02:14:56;;;;;;;1.63;1.53;;;;;;;9.18;99.08;94473.63;5055706;28;20221;-77
2021/12/25 02:17:28;;;;;;;2.50;1.30;;;;;;;9.15;98.96;94471.44;5074822;28;20231;-78
2021/12/25 02:20:13;;;;;;;1.30;1.20;;;;;;;9.08;100.00;94464.69;5074452;28;20211;-79
2021/12/25 02:22:40;;;;;;;1.20;1.10;;;;;;;9.13;99.39;94465.72;5055099;28;20285;-79
2021/12/25 02:25:07;;;;;;;1.60;1.50;;;;;;;9.15;99.33;94462.94;5061513;28;20209;-79
2021/12/25 02:27:34;;;;;;;1.50;1.40;;;;;;;9.16;98.96;94459.41;5067067;28;20229;-78
2021/12/25 02:30:00;;;;;;;1.50;1.40;;;;;;;9.22;98.57;94456.84;5054688;28;20208;-79
2021/12/25 02:32:27;;;;;;;2.23;1.30;;;;;;;9.24;98.37;94459.19;5059341;28;20201;-78
2021/12/25 02:34:53;;;;;;;2.87;1.70;;;;;;;9.28;98.22;94457.81;5074029;28;20216;-78
2021/12/25 02:37:21;;;;;;;1.23;1.13;;;;;;;9.30;97.84;94456.66;5072318;28;20221;-78
2021/12/25 02:39:47;;;;;;;1.30;1.20;;;;;;;9.31;97.93;94463.38;5073916;28;20208;-78
2021/12/25 02:42:14;;;;;;;1.47;1.37;;;;;;;9.34;97.52;94457.06;5060522;28;20197;-79
2021/12/25 02:44:41;;;;;;;1.50;1.10;;;;;;;9.31;97.73;94455.66;5064461;28;20228;-78
2021/12/25 02:47:16;;;;;;;1.27;1.13;;;;;;;9.33;97.47;94453.69;5068448;28;20228;-78
2021/12/25 02:49:47;;;;;;;1.60;1.20;;;;;;;9.32;97.78;94454.69;5062038;28;20632;-79
2021/12/25 02:52:14;;;;;;;1.60;1.20;;;;;;;9.34;97.92;94451.91;5075516;28;20211;-79
2021/12/25 02:54:43;;;;;;;1.83;1.40;;;;;;;9.31;97.95;94450.53;5054010;28;20221;-79
2021/12/25 02:57:10;;;;;;;1.40;1.30;;;;;;;9.28;97.89;94458.63;5054024;28;20323;-79
2021/12/25 02:59:36;;;;;;;1.47;1.37;;;;;;;9.28;98.31;94457.81;5071821;28;20195;-79
2021/12/25 03:02:07;;;;;;;2.30;1.30;;;;;;;9.30;97.89;94448.16;5073474;28;20298;-79
2021/12/25 03:04:35;;;;;;;1.60;1.30;;;;;;;9.29;98.20;94452.50;5056134;28;20599;-79
2021/12/25 03:07:01;;;;;;;1.37;1.27;;;;;;;9.30;97.97;94455.84;5053958;28;20229;-79
2021/12/25 03:09:28;;;;;;;2.07;1.20;;;;;;;9.31;97.66;94455.66;5053222;28;20198;-79
2021/12/25 03:11:56;;;;;;;1.37;1.27;;;;;;;9.28;97.74;94453.47;5055423;28;20199;-79
2021/12/25 03:14:33;;;;;;;1.70;1.47;;;;;;;9.30;97.17;94451.50;5059926;28;20193;-79
2021/12/25 03:16:59;;;;;;;1.43;1.30;;;;;;;9.31;97.61;94465.16;5066158;28;20220;-79
2021/12/25 03:19:31;;;;;;;1.40;1.30;;;;;;;9.23;97.31;94460.22;5062774;28;20197;-79
2021/12/25 03:21:58;;;;;;;1.50;1.20;;;;;;;9.25;97.29;94455.66;5060308;28;20250;-79
2021/12/25 03:24:24;;;;;;;1.17;1.10;;;;;;;9.24;97.22;94454.84;5057130;28;20225;-79
2021/12/25 03:26:54;;;;;;;1.63;1.53;;;;;;;9.28;96.97;94450.91;5070364;28;20848;-79
2021/12/25 03:29:22;;;;;;;1.83;1.30;;;;;;;9.30;96.86;94445.59;5063064;28;20197;-79
2021/12/25 03:31:49;;;;;;;1.20;1.10;;;;;;;9.23;97.06;94442.22;5072557;28;20204;-79
2021/12/25 03:34:16;;;;;;;1.20;1.10;;;;;;;9.19;96.99;94439.25;5072562;28;20201;-79
2021/12/25 03:36:44;;;;;;;1.30;1.20;;;;;;;9.23;97.23;94437.91;5071467;28;20200;-79
2021/12/25 03:39:11;;;;;;;1.27;1.17;;;;;;;9.24;96.75;94441.22;5070055;28;20204;-79
2021/12/25 03:41:37;;;;;;;1.27;1.10;;;;;;;9.24;96.76;94436.88;5053907;28;20300;-79
2021/12/25 03:44:05;;;;;;;1.30;1.20;;;;;;;9.19;97.02;94433.34;5060582;28;20197;-79
2021/12/25 03:46:33;;;;;;;1.10;1.10;;;;;;;9.21;96.72;94439.88;5056717;28;20221;-79
2021/12/25 03:49:12;;;;;;;1.20;1.10;;;;;;;9.23;96.50;94435.31;5060603;28;20599;-79
2021/12/25 04:00:08;;;;;;;1.30;1.20;;;;;;;9.36;95.38;94424.25;5030587;28;20209;-79
2021/12/25 04:02:49;;;;;;;1.83;1.20;;;;;;;9.37;95.63;94425.84;5029996;28;20233;-79
2021/12/25 04:05:18;;;;;;;1.60;1.37;;;;;;;9.34;95.92;94416.75;5060043;28;20284;-79
2021/12/25 04:08:01;;;;;;;1.33;1.23;;;;;;;9.37;95.89;94419.91;5072100;28;20243;-79
2021/12/25 04:10:28;;;;;;;1.43;1.33;;;;;;;9.38;95.96;94417.16;5071265;28;20201;-79
2021/12/25 04:12:55;;;;;;;1.20;1.10;;;;;;;9.38;95.88;94419.72;5065938;28;20216;-79
2021/12/25 04:15:22;;;;;;;1.20;1.10;;;;;;;9.37;96.04;94409.63;5051868;28;20221;-79
2021/12/25 04:17:50;;;;;;;1.50;1.30;;;;;;;9.38;96.17;94408.66;5053664;28;20223;-79
2021/12/25 04:20:17;;;;;;;1.53;1.30;;;;;;;9.35;96.34;94405.50;5052995;28;20224;-79
2021/12/25 04:22:47;;;;;;;1.30;1.20;;;;;;;9.36;96.62;94416.56;5064057;28;20205;-79
2021/12/25 04:25:20;;;;;;;1.43;1.27;;;;;;;9.34;96.56;94416.75;5072798;28;20639;-79
2021/12/25 04:27:47;;;;;;;1.40;1.30;;;;;;;9.36;96.84;94413.97;5057659;28;20236;-79
2021/12/25 04:30:28;;;;;;;1.50;1.33;;;;;;;9.37;96.63;94407.88;5072923;28;20299;-79
2021/12/25 05:03:14;;;;;;;1.40;1.30;;;;;;;9.32;96.13;94382.75;5075099;28;20204;-79
2021/12/25 05:05:42;;;;;;;1.47;1.20;;;;;;;9.31;95.72;94388.88;5075665;28;20224;-79
2021/12/25 05:08:09;;;;;;;1.27;1.17;;;;;;;9.31;95.28;94383.75;5075013;28;20232;-79
2021/12/25 05:10:36;;;;;;;1.30;1.20;;;;;;;9.32;94.94;94382.75;5075636;28;20688;-79
2021/12/25 05:13:02;;;;;;;1.20;1.10;;;;;;;9.31;95.16;94376.03;5075905;28;20223;-79
2021/12/25 05:15:29;;;;;;;1.27;1.10;;;;;;;9.32;95.20;94382.75;5074842;28;20224;-79
2021/12/25 05:17:55;;;;;;;1.93;1.10;;;;;;;9.32;95.34;94384.53;5074958;28;20229;-79
2021/12/25 05:20:23;;;;;;;1.27;1.17;;;;;;;9.31;95.31;94380.38;5075460;28;20624;-79
2021/12/25 05:22:51;;;;;;;1.40;1.27;;;;;;;9.28;94.93;94389.28;5074945;28;20197;-79
2021/12/25 05:25:18;;;;;;;1.40;1.30;;;;;;;9.28;94.85;94383.34;5074587;28;20228;-79
2021/12/25 05:27:45;;;;;;;2.30;1.23;;;;;;;9.20;94.53;94381.78;5075040;28;20244;-79
2021/12/25 05:30:12;;;;;;;1.23;1.13;;;;;;;9.20;94.61;94381.00;5074546;28;20231;-79
2021/12/25 05:32:39;;;;;;;1.30;1.20;;;;;;;9.17;94.81;94377.03;5074253;28;20201;-79
2021/12/25 05:35:06;;;;;;;1.37;1.10;;;;;;;9.17;94.33;94384.75;5074340;28;20234;-79
2021/12/25 05:37:32;;;;;;;1.77;1.23;;;;;;;9.17;94.68;94377.03;5074406;28;20228;-79
2021/12/25 05:40:01;;;;;;;1.20;1.10;;;;;;;9.16;94.49;94385.72;5079053;28;20196;-79
2021/12/25 05:42:28;;;;;;;1.27;1.17;;;;;;;9.14;94.43;94377.44;5075031;28;20208;-79
2021/12/25 05:44:54;;;;;;;1.20;1.10;;;;;;;9.14;95.09;94380.00;5072001;28;20224;-79
2021/12/25 05:47:21;;;;;;;1.30;1.20;;;;;;;9.11;95.02;94379.59;5072857;28;20237;-79
2021/12/25 05:49:47;;;;;;;1.30;1.20;;;;;;;9.13;95.18;94370.72;5073720;28;20201;-79
2021/12/25 05:52:14;;;;;;;1.20;1.10;;;;;;;9.14;94.94;94374.88;5055031;28;20229;-79
2021/12/25 05:54:41;;;;;;;1.20;1.10;;;;;;;9.14;94.33;94374.06;5055944;28;20236;-79
2021/12/25 05:57:08;;;;;;;1.70;1.20;;;;;;;9.15;94.31;94381.56;5055874;28;20218;-79
2021/12/25 05:59:38;;;;;;;1.27;1.17;;;;;;;9.17;94.54;94389.88;5068889;28;20202;-81
2021/12/25 06:02:04;;;;;;;1.20;1.10;;;;;;;9.18;93.88;94383.75;5056769;28;20205;-82
2021/12/25 06:04:31;;;;;;;1.50;1.30;;;;;;;9.19;94.23;94387.91;5057197;28;20210;-82
2021/12/25 06:06:57;;;;;;;2.10;1.13;;;;;;;9.20;93.82;94392.06;5055658;28;20233;-82
2021/12/25 06:09:24;;;;;;;1.50;1.13;;;;;;;9.17;94.30;94389.09;5073532;28;20207;-82
2021/12/25 06:11:56;;;;;;;1.40;1.30;;;;;;;9.16;94.54;94401.13;5074516;28;20212;-82
2021/12/25 06:14:24;;;;;;;1.27;1.17;;;;;;;9.16;94.97;94393.44;5061677;28;20216;-82
2021/12/25 06:16:51;;;;;;;1.40;1.30;;;;;;;9.17;94.93;94389.88;5056523;28;20198;-82
2021/12/25 06:19:20;;;;;;;1.30;1.20;;;;;;;9.18;94.56;94390.66;5075642;28;20200;-82
2021/12/25 06:21:47;;;;;;;1.33;1.23;;;;;;;9.18;94.60;94388.09;5069201;28;20204;-81
2021/12/25 06:24:15;;;;;;;1.27;1.17;;;;;;;9.18;94.63;94381.19;5075897;28;20698;-82
2021/12/25 06:26:42;;;;;;;1.30;1.20;;;;;;;9.17;94.53;94387.31;5066307;28;20295;-81
2021/12/25 06:29:08;;;;;;;1.20;1.10;;;;;;;9.15;94.63;94384.16;5063269;28;20208;-82
2021/12/25 06:31:36;;;;;;;1.90;1.20;;;;;;;9.16;94.48;94385.72;5062968;28;20200;-81
2021/12/25 06:34:03;;;;;;;1.20;1.07;;;;;;;9.16;94.72;94388.28;5075785;28;20258;-82
2021/12/25 06:36:30;;;;;;;1.40;1.30;;;;;;;9.16;94.70;94382.38;5056684;28;20221;-82
2021/12/25 06:38:56;;;;;;;1.43;1.33;;;;;;;9.15;94.94;94381.56;5053927;28;20232;-82
2021/12/25 06:41:23;;;;;;;1.30;1.20;;;;;;;9.15;94.79;94384.16;5054321;28;20201;-81
2021/12/25 06:43:49;;;;;;;1.83;1.30;;;;;;;9.15;94.46;94386.72;5068930;28;20193;-81
2021/12/25 06:46:16;;;;;;;1.77;1.40;;;;;;;9.15;94.61;94379.00;5066515;28;20213;-82
2021/12/25 06:48:43;;;;;;;1.30;1.20;;;;;;;9.11;93.46;94377.81;5057464;28;20221;-82
2021/12/25 06:51:10;;;;;;;1.83;1.40;;;;;;;9.13;92.98;94367.34;5073906;28;20292;-82
2021/12/25 06:53:37;;;;;;;1.30;1.20;;;;;;;9.07;91.78;94373.25;5071910;28;20189;-82
2021/12/25 06:56:05;;;;;;;1.20;1.10;;;;;;;9.00;92.22;94373.28;5072992;28;20216;-81
2021/12/25 06:58:31;;;;;;;1.50;1.40;;;;;;;8.98;91.88;94368.34;5073003;28;20278;-82
2021/12/25 07:00:58;;;;;;;1.23;1.10;;;;;;;9.00;91.47;94374.06;5073924;28;20839;-82
2021/12/25 07:03:24;;;;;;;1.40;1.00;;;;;;;9.01;90.98;94380.00;5073168;28;20196;-82
2021/12/25 07:05:52;;;;;;;1.20;1.10;;;;;;;8.96;90.53;94372.09;5069741;28;20225;-82
2021/12/25 07:08:18;;;;;;;1.13;1.03;;;;;;;9.00;90.23;94379.22;5067880;28;20232;-82
2021/12/25 07:10:45;;;;;;;1.20;1.10;;;;;;;9.00;90.26;94381.78;5072746;28;20196;-82
2021/12/25 07:13:16;;;;;;;2.53;1.47;;;;;;;9.20;100.00;94376.66;5072635;28;20200;-81
2021/12/25 07:15:43;;;;;;;0.90;0.90;;;;;;;9.29;89.48;94372.88;5072450;28;20270;-80
2021/12/25 07:18:10;;;;;;;0.80;0.80;;;;;;;9.28;88.12;94373.88;5072225;28;20228;-81
2021/12/25 07:20:36;;;;;;;1.20;0.90;;;;;;;9.23;88.07;94367.75;5073180;28;20215;-81
2021/12/25 07:23:04;;;;;;;1.00;1.00;;;;;;;9.23;87.78;94373.69;5072501;28;21132;-81
2021/12/25 07:25:31;;;;;;;0.80;0.80;;;;;;;9.25;88.60;94376.03;5072592;28;20299;-81
2021/12/25 07:27:57;;;;;;;1.00;1.00;;;;;;;9.22;87.69;94374.69;5071661;28;20224;-81
2021/12/25 07:30:24;;;;;;;1.07;0.97;;;;;;;9.19;88.26;94371.72;5071863;28;20199;-81
2021/12/25 07:32:51;;;;;;;1.10;1.10;;;;;;;9.20;87.83;94376.66;5072112;28;20196;-80
2021/12/25 07:35:17;;;;;;;1.20;1.10;;;;;;;9.23;87.71;94381.41;5072382;28;20228;-82
2021/12/25 07:37:44;;;;;;;1.20;1.10;;;;;;;9.27;87.81;94380.00;5071131;28;20239;-80
2021/12/25 07:40:13;;;;;;;2.50;1.30;;;;;;;9.22;88.05;94387.53;5071616;28;20223;-78
2021/12/25 07:42:39;;;;;;;1.30;1.20;;;;;;;9.23;88.62;94383.97;5072730;28;20192;-80
2021/12/25 07:45:08;;;;;;;1.37;1.27;;;;;;;9.20;88.38;94378.44;5071887;28;20311;-81
2021/12/25 07:47:36;;;;;;;1.27;1.17;;;;;;;9.27;88.14;94381.75;5068440;28;20316;-82
2021/12/25 07:50:03;;;;;;;1.17;1.07;;;;;;;9.28;87.94;94376.44;5071188;28;20208;-81
2021/12/25 07:52:30;;;;;;;1.47;1.30;;;;;;;9.21;87.82;94382.56;5070586;28;20199;-81
2021/12/25 07:54:57;;;;;;;3.07;1.30;;;;;;;9.21;87.95;94385.94;5061808;28;20224;-81
2021/12/25 07:57:25;;;;;;;1.20;1.13;;;;;;;9.26;87.89;94385.31;5069048;28;20223;-80
2021/12/25 07:59:52;;;;;;;1.20;0.97;;;;;;;9.32;87.47;94379.41;5071598;28;20201;-77
2021/12/25 08:02:18;;;;;;;1.23;1.17;;;;;;;9.35;87.03;94384.16;5070709;28;20201;-81
2021/12/25 08:04:45;;;;;;;1.30;1.20;;;;;;;9.35;87.09;94384.94;5074246;28;20243;-77
2021/12/25 08:07:11;;;;;;;1.30;1.20;;;;;;;9.46;86.54;94393.03;5077237;28;20235;-77
2021/12/25 08:09:38;;;;;;;1.57;1.20;;;;;;;9.49;86.53;94393.41;5077027;28;20241;-79
2021/12/25 08:12:06;;;;;;;1.20;1.10;;;;;;;9.51;86.97;94396.59;5079130;28;20197;-79
2021/12/25 08:14:34;;;;;;;1.30;1.20;;;;;;;9.50;86.49;94395.00;5078650;28;20231;-78
2021/12/25 08:17:03;;;;;;;1.27;1.17;;;;;;;9.54;86.55;94395.41;5078405;28;20243;-78
2021/12/25 08:19:29;;;;;;;1.40;1.30;;;;;;;9.53;86.87;94392.03;5073055;28;20480;-78
2021/12/25 08:21:57;;;;;;;1.43;1.30;;;;;;;9.58;86.82;94383.75;5076818;28;20638;-78
2021/12/25 08:24:23;;;;;;;1.80;1.40;;;;;;;9.60;87.12;94397.19;5074258;28;20193;-79
2021/12/25 08:26:51;;;;;;;1.93;1.47;;;;;;;9.60;87.07;94395.41;5071503;28;20549;-79
2021/12/25 08:29:18;;;;;;;1.93;1.53;;;;;;;9.62;86.66;94395.97;5071540;28;20223;-78
2021/12/25 08:31:45;;;;;;;1.37;1.27;;;;;;;9.62;87.26;94388.25;5072085;28;20196;-80
2021/12/25 08:34:12;;;;;;;1.60;1.30;;;;;;;9.60;86.84;94385.13;5070541;28;20208;-79
2021/12/25 08:36:39;;;;;;;1.40;1.30;;;;;;;9.65;86.90;94381.94;5070339;28;20564;-80
2021/12/25 08:39:06;;;;;;;1.50;1.40;;;;;;;9.62;87.23;94377.97;5071113;28;20201;-79
2021/12/25 08:41:33;;;;;;;1.27;1.17;;;;;;;9.67;87.13;94380.75;5071120;28;20201;-79
2021/12/25 08:44:07;;;;;;;1.70;1.37;;;;;;;9.63;86.61;94371.84;5070557;28;20205;-77
2021/12/25 08:46:45;;;;;;;1.90;1.40;;;;;;;9.72;86.49;94377.59;5061176;28;20238;-79
2021/12/25 08:49:16;;;;;;;1.40;1.30;;;;;;;9.78;85.87;94376.00;5070478;28;20883;-79
2021/12/25 08:51:43;;;;;;;1.40;1.30;;;;;;;9.78;85.89;94383.72;5071574;28;20201;-78
2021/12/25 08:54:10;;;;;;;1.57;1.30;;;;;;;9.70;85.83;94380.34;5070909;28;20215;-78
2021/12/25 08:56:37;;;;;;;1.40;1.30;;;;;;;9.69;85.86;94388.25;5070152;28;20232;-79
2021/12/25 08:59:04;;;;;;;1.93;1.40;;;;;;;9.69;86.45;94391.63;5070349;28;20200;-79
2021/12/25 09:01:30;;;;;;;1.23;1.13;;;;;;;9.74;86.01;94398.75;5051073;28;20209;-78
2021/12/25 09:03:57;;;;;;;1.10;1.10;;;;;;;9.80;85.55;94392.03;5051427;28;20212;-78
2021/12/25 09:06:25;;;;;;;1.30;1.20;;;;;;;9.76;84.97;94401.91;5051084;28;20255;-78
2021/12/25 09:08:52;;;;;;;1.50;1.33;;;;;;;9.79;84.66;94403.28;5050136;28;20256;-79
2021/12/25 09:11:20;;;;;;;1.53;1.30;;;;;;;9.84;84.47;94404.25;5051115;28;20198;-79
2021/12/25 09:13:47;;;;;;;1.63;1.30;;;;;;;9.99;84.22;94404.03;5050990;28;20201;-79
2021/12/25 09:16:14;;;;;;;2.30;1.20;;;;;;;10.10;83.09;94416.25;5053241;28;20268;-79
2021/12/25 09:18:40;;;;;;;1.60;1.50;;;;;;;10.24;82.07;94412.69;5053548;28;20310;-79
2021/12/25 09:21:07;;;;;;;1.40;1.30;;;;;;;10.33;81.50;94411.47;5054054;28;20205;-78
2021/12/25 09:23:34;;;;;;;2.13;1.30;;;;;;;10.46;81.05;94413.19;5073658;28;20192;-79
2021/12/25 09:26:01;;;;;;;1.53;1.30;;;;;;;10.58;80.78;94408.22;5073644;28;20220;-79
2021/12/25 09:28:28;;;;;;;1.60;1.50;;;;;;;10.57;80.24;94415.16;5073515;28;20240;-79
2021/12/25 09:30:54;;;;;;;1.40;1.30;;;;;;;10.55;79.63;94411.19;5074015;28;20189;-78
2021/12/25 09:33:21;;;;;;;1.77;1.20;;;;;;;10.61;79.81;94400.84;5073865;28;20279;-78
2021/12/25 09:35:47;;;;;;;1.40;1.30;;;;;;;10.64;79.13;94404.81;5078001;28;20228;-79
2021/12/25 09:38:14;;;;;;;1.30;1.20;;;;;;;10.64;78.05;94402.22;5092868;28;20679;-79
2021/12/25 09:40:42;;;;;;;2.07;1.30;;;;;;;10.55;78.82;94409.41;5094373;28;20582;-79
2021/12/25 09:43:08;;;;;;;2.00;1.23;;;;;;;10.48;78.47;94413.00;5084736;28;20201;-80
2021/12/25 09:45:35;;;;;;;1.50;1.40;;;;;;;10.49;78.67;94412.00;5073587;28;20220;-78
2021/12/25 09:48:02;;;;;;;1.27;1.13;;;;;;;10.55;78.70;94406.84;5072828;28;20233;-78
2021/12/25 09:50:28;;;;;;;2.50;1.30;;;;;;;10.52;78.45;94404.66;5073814;28;20536;-79
2021/12/25 09:52:55;;;;;;;1.27;1.17;;;;;;;10.59;78.28;94407.19;5073285;28;20235;-79
2021/12/25 09:55:21;;;;;;;1.30;1.20;;;;;;;10.54;78.79;94397.53;5070151;28;20999;-78
2021/12/25 09:57:49;;;;;;;1.33;1.23;;;;;;;10.55;78.23;94403.47;5073614;28;20229;-79
2021/12/25 10:00:19;;;;;;;1.40;1.30;;;;;;;10.49;78.63;94399.94;5073259;28;20205;-78
2021/12/25 10:02:49;;;;;;;1.53;1.10;;;;;;;10.53;78.61;94398.53;5073148;28;20197;-79
2021/12/25 10:05:25;;;;;;;1.30;1.20;;;;;;;10.56;78.74;94392.19;5072950;28;20744;-79
2021/12/25 10:08:01;;;;;;;1.33;1.23;;;;;;;10.53;78.82;94392.59;5072791;28;20232;-79
2021/12/25 10:10:37;;;;;;;1.30;1.20;;;;;;;10.55;78.42;94404.28;5073771;28;20196;-78
2021/12/25 10:13:16;;;;;;;1.20;1.10;;;;;;;10.56;78.38;94397.34;5073143;28;20200;-79
2021/12/25 10:15:43;;;;;;;1.20;1.10;;;;;;;10.53;78.28;94393.38;5072661;28;20231;-77
2021/12/25 10:18:09;;;;;;;1.23;1.13;;;;;;;10.63;78.30;94395.50;5071665;28;20228;-78
2021/12/25 10:20:36;;;;;;;1.20;1.10;;;;;;;10.57;78.01;94388.63;5074599;28;20204;-77
2021/12/25 10:23:07;;;;;;;1.00;1.00;;;;;;;10.52;77.79;94401.31;5078112;28;20208;-78
2021/12/25 10:25:38;;;;;;;1.00;0.90;;;;;;;10.57;77.16;94401.50;5079547;28;20294;-78
2021/12/25 10:28:08;;;;;;;1.10;1.00;;;;;;;10.63;76.84;94404.00;5075374;28;20798;-79
2021/12/25 10:30:50;;;;;;;1.17;1.07;;;;;;;10.61;77.30;94400.84;5062930;28;20201;-79
2021/12/25 10:33:33;;;;;;;0.80;0.80;;;;;;;10.59;76.75;94389.19;5052506;28;20233;-78
2021/12/25 10:36:02;;;;;;;1.17;0.90;;;;;;;10.54;76.51;94386.47;5051643;28;20217;-79
2021/12/25 10:38:29;;;;;;;0.90;0.90;;;;;;;10.61;76.93;94380.25;5051321;28;20222;-77
2021/12/25 10:41:20;;;;;;;1.20;1.10;;;;;;;10.60;76.24;94386.41;5067391;28;20201;-78
2021/12/25 10:43:52;;;;;;;1.77;0.90;;;;;;;10.70;76.31;94386.75;5071772;28;20702;-78
2021/12/25 10:46:20;;;;;;;0.90;0.90;;;;;;;10.81;76.59;94398.19;5061047;28;20216;-78
2021/12/25 10:48:46;;;;;;;1.07;1.00;;;;;;;10.81;75.69;94392.25;5072043;28;20275;-79
2021/12/25 10:51:28;;;;;;;0.90;0.90;;;;;;;10.88;75.55;94390.44;5072433;28;20200;-79
2021/12/25 10:53:55;;;;;;;1.30;1.00;;;;;;;10.89;75.49;94389.44;5068210;28;20208;-79
2021/12/25 10:56:22;;;;;;;1.20;1.10;;;;;;;10.97;75.67;94395.09;5072757;28;20224;-79
2021/12/25 10:58:51;;;;;;;1.10;1.00;;;;;;;10.95;74.72;94394.56;5072084;28;20224;-78
2021/12/25 11:01:18;;;;;;;1.13;1.03;;;;;;;10.95;74.75;94393.75;5071154;28;20200;-79
2021/12/25 11:03:46;;;;;;;1.17;1.07;;;;;;;10.95;74.32;94399.69;5071741;28;20205;-79
2021/12/25 11:06:18;;;;;;;1.27;0.90;;;;;;;11.02;74.53;94387.56;5072148;28;20225;-79
2021/12/25 11:08:46;;;;;;;0.87;0.87;;;;;;;10.98;74.48;94398.47;5071037;28;20227;-77
2021/12/25 11:11:14;;;;;;;0.93;0.93;;;;;;;11.03;74.96;94396.06;5072314;28;20196;-79
2021/12/25 11:13:43;;;;;;;1.20;1.10;;;;;;;11.00;74.94;94396.47;5071828;28;20196;-79
2021/12/25 11:16:27;;;;;;;1.03;1.00;;;;;;;11.05;74.89;94394.88;5072036;28;20228;-79
2021/12/25 11:19:04;;;;;;;0.90;0.90;;;;;;;11.06;74.60;94393.88;5070927;28;20278;-78
2021/12/25 11:21:33;;;;;;;0.93;0.90;;;;;;;11.06;74.68;94390.50;5071664;28;20215;-79
2021/12/25 11:24:12;;;;;;;1.47;1.10;;;;;;;11.02;74.44;94387.56;5071976;28;20200;-79
2021/12/25 11:26:40;;;;;;;1.07;0.97;;;;;;;10.96;74.51;94393.56;5071269;28;20208;-79
2021/12/25 11:29:08;;;;;;;1.00;1.00;;;;;;;10.97;75.31;94391.75;5068361;28;20213;-79
2021/12/25 11:31:36;;;;;;;1.00;0.90;;;;;;;10.95;75.23;94384.25;5071218;28;20746;-79
2021/12/25 11:34:04;;;;;;;1.10;0.80;;;;;;;10.89;75.48;94389.44;5071954;28;20207;-79
2021/12/25 11:36:31;;;;;;;1.33;1.00;;;;;;;10.87;75.10;94394.00;5071448;28;20209;-79
2021/12/25 11:38:57;;;;;;;1.10;1.00;;;;;;;10.89;74.87;94387.66;5069598;28;20235;-80
2021/12/25 11:41:27;;;;;;;0.90;0.90;;;;;;;10.92;75.14;94386.44;5071107;28;20208;-79
2021/12/25 11:43:54;;;;;;;1.10;1.00;;;;;;;10.96;75.38;94379.88;5071371;28;20702;-79
2021/12/25 11:46:23;;;;;;;1.03;1.00;;;;;;;10.95;75.19;94386.81;5071159;28;20311;-79
2021/12/25 11:49:05;;;;;;;1.13;1.03;;;;;;;11.02;75.05;94376.47;5070187;28;20243;-79
2021/12/25 11:51:31;;;;;;;1.23;1.10;;;;;;;11.00;75.12;94381.81;5070638;28;20201;-79
2021/12/25 11:54:15;;;;;;;1.03;0.93;;;;;;;10.98;74.94;94381.25;5071415;28;20207;-79
2021/12/25 11:57:02;;;;;;;2.10;1.27;;;;;;;11.04;75.04;94377.84;5069151;28;20740;-79
2021/12/25 11:59:44;;;;;;;1.80;1.30;;;;;;;11.10;74.81;94378.78;5069546;28;20185;-79
2021/12/25 12:02:11;;;;;;;1.97;1.03;;;;;;;11.04;75.14;94366.75;5072300;28;20202;-79
2021/12/25 12:04:40;;;;;;;1.17;0.97;;;;;;;11.05;75.01;94376.06;5070875;28;20232;-79
2021/12/25 12:07:12;;;;;;;1.33;1.00;;;;;;;11.05;75.15;94369.13;5071486;28;20224;-79
2021/12/25 12:09:55;;;;;;;1.20;1.10;;;;;;;11.07;74.79;94371.47;5071535;28;20217;-79
2021/12/25 12:12:24;;;;;;;1.17;1.07;;;;;;;11.05;74.88;94371.69;5071488;28;20284;-79
2021/12/25 12:15:13;;;;;;;1.07;0.97;;;;;;;11.02;75.14;94371.31;5070946;28;20212;-79
2021/12/25 12:17:40;;;;;;;1.40;1.27;;;;;;;10.94;75.45;94372.38;5069684;28;20485;-80
2021/12/25 12:20:15;;;;;;;1.37;1.27;;;;;;;10.91;75.23;94370.22;5069938;28;20196;-80
2021/12/25 12:23:04;;;;;;;1.50;1.30;;;;;;;10.92;75.26;94376.16;5070604;28;20192;-80
2021/12/25 12:28:15;;;;;;;1.17;1.07;;;;;;;10.81;76.09;94380.16;5068992;28;20223;-80
2021/12/25 12:30:47;;;;;;;6.30;4.63;;;;;;;10.98;81.72;94386.38;5058812;28;20238;-81
2021/12/25 12:33:37;;;;;;;1.60;1.40;;;;;;;11.25;75.75;94381.06;5070041;28;20247;-79
2021/12/25 12:36:22;;;;;;;2.20;1.20;;;;;;;11.20;75.03;94381.69;5071543;28;20221;-79
2021/12/25 12:38:53;;;;;;;1.10;1.03;;;;;;;11.11;75.11;94387.31;5070781;28;20624;-80
2021/12/25 12:41:25;;;;;;;1.27;1.17;;;;;;;11.07;75.19;94386.94;5071000;28;20272;-80
2021/12/25 12:44:05;;;;;;;1.30;1.20;;;;;;;10.99;75.78;94397.47;5071332;28;20204;-79